createdAt,value
2023-04-08T00:00:07.537Z,97490.80
2023-04-08T00:02:58.933Z,97490.05
2023-04-08T00:05:27.936Z,97492.44
2023-04-08T00:07:56.845Z,97490.31
2023-04-08T00:10:27.683Z,97491.98
2023-04-08T00:12:57.673Z,97490.98
2023-04-08T00:15:27.384Z,97486.48
2023-04-08T00:17:56.600Z,97485.77
2023-04-08T00:20:25.615Z,97488.99
2023-04-08T00:22:54.440Z,97485.58
2023-04-08T00:25:25.389Z,97487.50
2023-04-08T00:27:54.654Z,97484.66
2023-04-08T00:30:23.632Z,97484.82
2023-04-08T00:32:53.622Z,97484.66
2023-04-08T00:35:23.133Z,97484.38
2023-04-08T00:37:53.344Z,97484.55
2023-04-08T00:40:23.376Z,97485.09
2023-04-08T00:42:52.893Z,97485.03
2023-04-08T00:45:23.090Z,97484.42
2023-04-08T00:47:53.121Z,97479.05
2023-04-08T00:50:22.152Z,97482.63
2023-04-08T00:52:51.537Z,97481.73
2023-04-08T00:55:20.650Z,97478.56
2023-04-08T00:57:49.896Z,97475.74
2023-04-08T01:00:18.675Z,97475.88
2023-04-08T01:02:47.552Z,97474.60
2023-04-08T01:05:21.507Z,97476.14
2023-04-08T01:07:50.952Z,97477.84
2023-04-08T01:10:22.038Z,97479.73
2023-04-08T01:12:57.567Z,97479.67
2023-04-08T01:15:28.738Z,97480.98
2023-04-08T01:17:59.640Z,97480.96
2023-04-08T01:20:30.440Z,97480.97
2023-04-08T01:23:18.573Z,97482.00
2023-04-08T01:25:50.811Z,97485.42
2023-04-08T01:28:21.968Z,97483.17
2023-04-08T01:30:52.124Z,97482.83
2023-04-08T01:33:23.244Z,97484.02
2023-04-08T01:35:53.447Z,97484.00
2023-04-08T01:38:23.295Z,97485.04
2023-04-08T01:40:52.868Z,97485.26
2023-04-08T01:43:22.336Z,97485.48
2023-04-08T01:45:55.109Z,97485.61
2023-04-08T01:48:24.871Z,97488.85
2023-04-08T01:50:56.005Z,97490.93
2023-04-08T01:53:25.968Z,97487.14
2023-04-08T01:56:02.674Z,97488.73
2023-04-08T01:58:35.874Z,97488.20
2023-04-08T02:01:07.755Z,97491.12
2023-04-08T02:03:38.141Z,97488.73
2023-04-08T02:06:08.214Z,97486.86
2023-04-08T02:08:37.273Z,97485.23
2023-04-08T02:11:07.004Z,97485.13
2023-04-08T02:13:36.569Z,97481.02
2023-04-08T02:16:17.497Z,97483.13
2023-04-08T02:18:50.363Z,97485.75
2023-04-08T02:21:22.520Z,97483.05
2023-04-08T02:23:52.094Z,97480.66
2023-04-08T02:26:25.558Z,97480.48
2023-04-08T02:28:57.472Z,97485.20
2023-04-08T02:31:27.547Z,97485.06
2023-04-08T02:33:57.201Z,97483.39
2023-04-08T02:36:27.222Z,97481.02
2023-04-08T02:38:56.215Z,97476.60
2023-04-08T02:41:28.785Z,97481.63
2023-04-08T02:43:58.603Z,97479.49
2023-04-08T02:46:27.749Z,97482.30
2023-04-08T02:48:57.377Z,97479.70
2023-04-08T02:51:28.612Z,97482.14
2023-04-08T02:53:57.936Z,97480.45
2023-04-08T02:56:28.589Z,97481.36
2023-04-08T02:59:00.115Z,97483.77
2023-04-08T03:01:31.251Z,97485.31
2023-04-08T03:04:00.405Z,97484.95
2023-04-08T03:06:29.920Z,97483.04
2023-04-08T03:08:59.153Z,97483.73
2023-04-08T03:11:28.387Z,97487.04
2023-04-08T03:13:58.922Z,97487.55
2023-04-08T03:16:28.832Z,97491.33
2023-04-08T03:18:58.514Z,97491.85
2023-04-08T03:21:27.605Z,97493.78
2023-04-08T03:23:57.282Z,97495.42
2023-04-08T03:26:28.874Z,97493.06
2023-04-08T03:28:59.203Z,97497.38
2023-04-08T03:31:28.919Z,97497.65
2023-04-08T03:33:58.185Z,97496.05
2023-04-08T03:36:28.451Z,97497.75
2023-04-08T03:38:58.056Z,97499.06
2023-04-08T03:41:27.551Z,97502.23
2023-04-08T03:43:57.371Z,97505.40
2023-04-08T03:46:27.388Z,97506.66
2023-04-08T03:48:56.353Z,97511.02
2023-04-08T03:51:24.862Z,97511.05
2023-04-08T03:53:54.608Z,97513.63
2023-04-08T03:56:24.381Z,97511.25
2023-04-08T03:58:54.533Z,97517.78
2023-04-08T04:01:24.094Z,97516.92
2023-04-08T04:03:53.223Z,97516.21
2023-04-08T04:06:22.581Z,97520.16
2023-04-08T04:08:53.861Z,97520.98
2023-04-08T04:11:23.148Z,97521.08
2023-04-08T04:13:52.344Z,97522.84
2023-04-08T04:16:21.337Z,97529.25
2023-04-08T04:18:50.570Z,97529.11
2023-04-08T04:21:20.311Z,97531.65
2023-04-08T04:23:49.068Z,97531.96
2023-04-08T04:26:17.825Z,97531.14
2023-04-08T04:28:46.292Z,97533.39
2023-04-08T04:31:26.817Z,97534.24
2023-04-08T04:33:55.529Z,97538.37
2023-04-08T04:36:24.352Z,97544.80
2023-04-08T04:38:53.325Z,97546.45
2023-04-08T04:41:22.229Z,97549.86
2023-04-08T04:43:51.309Z,97549.71
2023-04-08T04:46:20.110Z,97552.63
2023-04-08T04:48:49.246Z,97554.02
2023-04-08T04:51:18.041Z,97556.63
2023-04-08T04:53:46.748Z,97561.50
2023-04-08T04:56:15.959Z,97561.60
2023-04-08T04:58:44.839Z,97563.92
2023-04-08T05:01:13.498Z,97565.63
2023-04-08T05:03:42.050Z,97566.44
2023-04-08T05:06:10.850Z,97571.14
2023-04-08T05:08:39.732Z,97574.98
2023-04-08T05:11:11.713Z,97580.42
2023-04-08T05:13:40.167Z,97582.27
2023-04-08T05:16:08.998Z,97586.77
2023-04-08T05:18:38.005Z,97589.60
2023-04-08T05:21:06.654Z,97591.41
2023-04-08T05:23:35.294Z,97596.69
2023-04-08T05:26:07.369Z,97599.11
2023-04-08T05:28:36.334Z,97601.40
2023-04-08T05:31:04.976Z,97598.14
2023-04-08T05:33:33.506Z,97597.95
2023-04-08T05:36:03.112Z,97599.60
2023-04-08T05:38:31.907Z,97602.64
2023-04-08T05:41:00.743Z,97607.12
2023-04-08T05:43:29.052Z,97607.62
2023-04-08T05:45:57.632Z,97608.54
2023-04-08T05:48:26.044Z,97613.92
2023-04-08T05:50:54.483Z,97615.58
2023-04-08T05:53:24.304Z,97613.27
2023-04-08T05:55:52.615Z,97615.42
2023-04-08T05:58:21.055Z,97616.49
2023-04-08T06:00:49.478Z,97617.30
2023-04-08T06:03:20.441Z,97610.68
2023-04-08T06:05:49.518Z,97613.86
2023-04-08T06:08:17.990Z,97619.08
2023-04-08T06:10:50.725Z,97621.29
2023-04-08T06:13:20.650Z,97623.30
2023-04-08T06:15:51.821Z,97627.05
2023-04-08T06:18:20.226Z,97627.04
2023-04-08T06:20:48.845Z,97626.52
2023-04-08T06:23:17.232Z,97624.83
2023-04-08T06:25:45.650Z,97626.54
2023-04-08T06:28:14.198Z,97625.23
2023-04-08T06:30:42.477Z,97620.60
2023-04-08T06:33:10.975Z,97619.00
2023-04-08T06:35:39.573Z,97616.80
2023-04-08T06:38:07.944Z,97618.59
2023-04-08T06:40:38.569Z,97621.38
2023-04-08T06:43:09.834Z,97619.52
2023-04-08T06:45:40.881Z,97620.48
2023-04-08T06:48:09.768Z,97621.77
2023-04-08T06:50:38.183Z,97622.73
2023-04-08T06:53:06.579Z,97617.78
2023-04-08T06:55:34.941Z,97620.05
2023-04-08T06:58:03.440Z,97617.75
2023-04-08T07:00:31.906Z,97625.15
2023-04-08T07:03:00.326Z,97625.55
2023-04-08T07:05:28.951Z,97629.32
2023-04-08T07:07:57.295Z,97625.10
2023-04-08T07:10:26.215Z,97623.47
2023-04-08T07:12:54.891Z,97622.11
2023-04-08T07:15:23.261Z,97621.50
2023-04-08T07:17:51.906Z,97619.62
2023-04-08T07:20:20.371Z,97621.44
2023-04-08T07:22:48.807Z,97622.73
2023-04-08T07:25:17.434Z,97621.00
2023-04-08T07:27:46.023Z,97622.45
2023-04-08T07:30:14.449Z,97617.42
2023-04-08T07:32:42.941Z,97613.22
2023-04-08T07:35:11.392Z,97614.63
2023-04-08T07:37:39.714Z,97621.02
2023-04-08T07:40:08.693Z,97622.02
2023-04-08T07:42:37.786Z,97626.51
2023-04-08T07:45:08.017Z,97628.72
2023-04-08T07:47:37.212Z,97634.16
2023-04-08T07:50:06.260Z,97631.64
2023-04-08T07:52:34.947Z,97628.10
2023-04-08T07:55:03.468Z,97626.83
2023-04-08T07:57:32.526Z,97623.44
2023-04-08T08:00:00.884Z,97616.16
2023-04-08T08:02:29.423Z,97613.29
2023-04-08T08:04:58.194Z,97616.11
2023-04-08T08:07:26.629Z,97614.66
2023-04-08T08:09:54.907Z,97621.38
2023-04-08T08:12:23.349Z,97621.57
2023-04-08T08:14:54.979Z,97616.01
2023-04-08T08:17:23.660Z,97616.81
2023-04-08T08:19:52.494Z,97619.05
2023-04-08T08:22:20.985Z,97616.99
2023-04-08T08:24:49.526Z,97619.27
2023-04-08T08:27:17.961Z,97617.69
2023-04-08T08:29:46.661Z,97620.74
2023-04-08T08:32:15.097Z,97621.13
2023-04-08T08:34:43.545Z,97617.71
2023-04-08T08:37:11.877Z,97614.84
2023-04-08T08:39:40.794Z,97612.35
2023-04-08T08:42:19.168Z,97615.88
2023-04-08T08:44:47.710Z,97613.54
2023-04-08T08:47:16.768Z,97613.52
2023-04-08T08:49:46.298Z,97614.85
2023-04-08T08:52:19.006Z,97615.15
2023-04-08T08:54:47.471Z,97616.37
2023-04-08T08:57:20.038Z,97609.17
2023-04-08T08:59:48.476Z,97613.03
2023-04-08T09:02:30.717Z,97616.92
2023-04-08T09:05:00.637Z,97620.50
2023-04-08T09:07:31.144Z,97621.16
2023-04-08T09:10:00.154Z,97623.20
2023-04-08T09:12:28.840Z,97623.95
2023-04-08T09:15:23.613Z,97626.63
2023-04-08T09:17:52.553Z,97630.28
2023-04-08T09:20:21.153Z,97631.49
2023-04-08T09:23:02.800Z,97633.89
2023-04-08T09:25:32.950Z,97637.91
2023-04-08T09:28:03.196Z,97638.70
2023-04-08T09:30:32.693Z,97637.36
2023-04-08T09:33:01.721Z,97640.08
2023-04-08T09:35:30.241Z,97640.80
2023-04-08T09:37:58.662Z,97644.79
2023-04-08T09:40:28.062Z,97644.05
2023-04-08T09:42:57.615Z,97645.80
2023-04-08T09:45:28.366Z,97646.43
2023-04-08T09:48:02.989Z,97648.28
2023-04-08T09:50:39.951Z,97648.39
2023-04-08T09:53:19.222Z,97649.89
2023-04-08T09:55:52.209Z,97656.34
2023-04-08T09:58:28.016Z,97657.61
2023-04-08T10:00:57.092Z,97658.52
2023-04-08T10:03:25.739Z,97657.34
2023-04-08T10:05:54.841Z,97657.60
2023-04-08T10:08:25.068Z,97658.95
2023-04-08T10:10:54.364Z,97658.15
2023-04-08T10:13:23.220Z,97659.09
2023-04-08T10:15:51.597Z,97659.10
2023-04-08T10:18:20.740Z,97659.54
2023-04-08T10:20:49.981Z,97661.23
2023-04-08T10:23:18.840Z,97659.64
2023-04-08T10:25:48.470Z,97661.79
2023-04-08T10:28:18.489Z,97662.40
2023-04-08T10:30:47.870Z,97660.73
2023-04-08T10:33:22.567Z,97664.73
2023-04-08T10:35:55.379Z,97663.77
2023-04-08T10:38:23.863Z,97665.16
2023-04-08T10:40:52.795Z,97665.71
2023-04-08T10:43:21.253Z,97668.59
2023-04-08T10:45:51.686Z,97671.93
2023-04-08T10:48:22.776Z,97670.88
2023-04-08T10:50:58.317Z,97669.19
2023-04-08T10:53:33.963Z,97669.60
2023-04-08T10:56:06.473Z,97670.95
2023-04-08T10:58:35.477Z,97671.36
2023-04-08T11:01:05.566Z,97668.91
2023-04-08T11:03:38.336Z,97671.20
2023-04-08T11:06:07.713Z,97674.73
2023-04-08T11:08:39.845Z,97673.84
2023-04-08T11:11:11.882Z,97673.48
2023-04-08T11:13:52.721Z,97672.48
2023-04-08T11:16:26.409Z,97674.88
2023-04-08T11:18:55.863Z,97674.25
2023-04-08T11:21:25.808Z,97674.67
2023-04-08T11:23:54.494Z,97677.29
2023-04-08T11:26:23.671Z,97673.25
2023-04-08T11:28:52.578Z,97674.88
2023-04-08T11:31:24.724Z,97673.42
2023-04-08T11:33:55.290Z,97672.59
2023-04-08T11:36:23.674Z,97669.39
2023-04-08T11:38:53.966Z,97670.55
2023-04-08T11:41:22.747Z,97672.23
2023-04-08T11:43:52.487Z,97672.84
2023-04-08T11:46:21.132Z,97671.09
2023-04-08T11:49:02.936Z,97669.12
2023-04-08T11:51:31.349Z,97669.59
2023-04-08T11:53:59.846Z,97668.27
2023-04-08T11:56:30.841Z,97673.90
2023-04-08T11:58:59.462Z,97670.05
2023-04-08T12:01:27.909Z,97667.85
2023-04-08T12:03:57.766Z,97665.93
2023-04-08T12:06:27.966Z,97667.94
2023-04-08T12:08:57.178Z,97668.31
2023-04-08T12:11:26.374Z,97668.18
2023-04-08T12:13:55.019Z,97669.58
2023-04-08T12:16:23.477Z,97669.10
2023-04-08T12:18:51.985Z,97669.66
2023-04-08T12:21:20.500Z,97672.58
2023-04-08T12:23:49.186Z,97668.00
2023-04-08T12:26:17.803Z,97666.23
2023-04-08T12:28:46.513Z,97670.63
2023-04-08T12:31:15.134Z,97672.08
2023-04-08T12:33:43.495Z,97668.77
2023-04-08T12:36:13.570Z,97671.48
2023-04-08T12:38:42.440Z,97674.13
2023-04-08T12:41:10.869Z,97674.34
2023-04-08T12:43:39.771Z,97672.42
2023-04-08T12:46:08.284Z,97673.67
2023-04-08T12:48:37.043Z,97670.99
2023-04-08T12:51:05.718Z,97666.36
2023-04-08T12:53:34.038Z,97664.86
2023-04-08T12:56:03.190Z,97666.75
2023-04-08T12:58:31.849Z,97661.70
2023-04-08T13:01:00.290Z,97663.48
2023-04-08T13:03:32.156Z,97657.94
2023-04-08T13:06:00.898Z,97657.98
2023-04-08T13:08:29.504Z,97656.98
2023-04-08T13:10:58.074Z,97655.73
2023-04-08T13:13:26.872Z,97652.17
2023-04-08T13:15:55.427Z,97654.80
2023-04-08T13:18:23.758Z,97648.27
2023-04-08T13:20:52.130Z,97649.35
2023-04-08T13:23:21.699Z,97647.08
2023-04-08T13:25:50.130Z,97647.03
2023-04-08T13:28:18.676Z,97645.08
2023-04-08T13:30:47.038Z,97641.55
2023-04-08T13:33:15.773Z,97639.77
2023-04-08T13:35:44.280Z,97633.21
2023-04-08T13:38:13.193Z,97633.38
2023-04-08T13:40:41.811Z,97632.79
2023-04-08T13:43:10.140Z,97631.47
2023-04-08T13:45:39.146Z,97630.29
2023-04-08T13:48:08.416Z,97630.86
2023-04-08T13:50:36.939Z,97629.90
2023-04-08T14:04:54.328Z,97623.28
2023-04-08T14:07:23.071Z,97624.29
2023-04-08T14:09:51.909Z,97622.91
2023-04-08T14:12:20.620Z,97620.96
2023-04-08T14:14:49.261Z,97618.10
2023-04-08T14:17:17.969Z,97618.09
2023-04-08T14:19:46.734Z,97614.98
2023-04-08T14:22:16.257Z,97616.35
2023-04-08T14:24:44.832Z,97614.87
2023-04-08T14:27:13.725Z,97617.16
2023-04-08T14:29:42.241Z,97616.95
2023-04-08T14:32:10.737Z,97616.39
2023-04-08T14:34:39.258Z,97613.09
2023-04-08T14:37:08.137Z,97612.23
2023-04-08T14:39:36.603Z,97613.58
2023-04-08T14:42:05.111Z,97609.73
2023-04-08T14:44:33.700Z,97607.68
2023-04-08T14:47:02.316Z,97606.20
2023-04-08T14:49:30.834Z,97608.25
2023-04-08T14:51:59.472Z,97607.27
2023-04-08T14:54:27.923Z,97601.45
2023-04-08T14:56:57.081Z,97607.99
2023-04-08T14:59:25.586Z,97606.16
2023-04-08T15:01:54.198Z,97603.48
2023-04-08T15:04:23.092Z,97606.54
2023-04-08T15:06:52.200Z,97609.05
2023-04-08T15:09:21.079Z,97607.40
2023-04-08T15:11:49.617Z,97607.14
2023-04-08T15:14:18.056Z,97611.39
2023-04-08T15:16:46.614Z,97608.41
2023-04-08T15:19:15.327Z,97608.77
2023-04-08T15:21:43.839Z,97609.08
2023-04-08T15:24:13.231Z,97612.40
2023-04-08T15:26:41.974Z,97612.02
2023-04-08T15:29:10.550Z,97613.73
2023-04-08T15:31:39.163Z,97613.46
2023-04-08T15:34:07.823Z,97614.94
2023-04-08T15:36:37.793Z,97617.98
2023-04-08T15:39:06.794Z,97613.30
2023-04-08T15:41:35.348Z,97616.27
2023-04-08T15:44:03.857Z,97621.13
2023-04-08T15:46:33.031Z,97622.52
2023-04-08T15:49:02.237Z,97628.92
2023-04-08T15:51:30.814Z,97630.26
2023-04-08T15:53:59.785Z,97632.20
2023-04-08T15:56:29.764Z,97634.74
2023-04-08T15:58:58.667Z,97631.30
2023-04-08T16:01:27.257Z,97631.73
2023-04-08T16:03:56.129Z,97631.37
2023-04-08T16:06:24.829Z,97632.20
2023-04-08T16:08:53.438Z,97632.17
2023-04-08T16:11:22.711Z,97632.42
2023-04-08T16:13:51.344Z,97637.14
2023-04-08T16:16:20.045Z,97637.80
2023-04-08T16:18:48.852Z,97636.70
2023-04-08T16:21:17.624Z,97637.82
2023-04-08T16:23:46.118Z,97638.14
2023-04-08T16:26:14.818Z,97639.70
2023-04-08T16:28:43.912Z,97638.83
2023-04-08T16:31:12.421Z,97639.79
2023-04-08T16:33:41.018Z,97639.01
2023-04-08T16:36:09.858Z,97643.73
2023-04-08T16:38:38.476Z,97644.15
2023-04-08T16:41:10.303Z,97644.90
2023-04-08T16:43:38.806Z,97645.99
2023-04-08T16:46:17.072Z,97648.79
2023-04-08T16:48:45.639Z,97651.50
2023-04-08T16:51:14.109Z,97650.14
2023-04-08T16:53:42.861Z,97649.67
2023-04-08T16:56:16.128Z,97646.14
2023-04-08T16:58:45.548Z,97651.48
2023-04-08T17:01:16.840Z,97653.38
2023-04-08T17:03:48.094Z,97656.95
2023-04-08T17:06:18.060Z,97656.42
2023-04-08T17:08:46.795Z,97660.50
2023-04-08T17:11:15.583Z,97658.86
2023-04-08T17:13:44.854Z,97661.36
2023-04-08T17:16:16.173Z,97662.40
2023-04-08T17:18:46.008Z,97664.98
2023-04-08T17:21:14.482Z,97665.96
2023-04-08T17:23:43.085Z,97671.08
2023-04-08T17:26:13.154Z,97674.38
2023-04-08T17:28:41.968Z,97674.79
2023-04-08T17:31:11.236Z,97679.15
2023-04-08T17:33:39.762Z,97683.69
2023-04-08T17:36:08.259Z,97685.48
2023-04-08T17:38:40.201Z,97690.67
2023-04-08T17:41:09.226Z,97689.45
2023-04-08T17:43:38.052Z,97695.98
2023-04-08T17:46:06.659Z,97700.73
2023-04-08T17:48:35.548Z,97702.77
2023-04-08T17:51:06.903Z,97702.52
2023-04-08T17:53:35.487Z,97708.25
2023-04-08T17:56:05.639Z,97713.33
2023-04-08T17:58:33.988Z,97716.77
2023-04-08T18:01:02.454Z,97720.00
2023-04-08T18:03:31.278Z,97719.40
2023-04-08T18:06:00.098Z,97720.11
2023-04-08T18:08:28.598Z,97724.27
2023-04-08T18:10:57.017Z,97729.09
2023-04-08T18:13:25.635Z,97735.10
2023-04-08T18:15:54.139Z,97735.05
2023-04-08T18:18:22.820Z,97737.31
2023-04-08T18:20:51.951Z,97736.42
2023-04-08T18:23:20.455Z,97739.48
2023-04-08T18:25:50.443Z,97737.53
2023-04-08T18:28:19.056Z,97745.07
2023-04-08T18:30:52.076Z,97745.27
2023-04-08T18:33:22.000Z,97743.95
2023-04-08T18:35:52.907Z,97743.98
2023-04-08T18:38:22.237Z,97746.63
2023-04-08T18:40:50.741Z,97743.69
2023-04-08T18:43:19.250Z,97745.95
2023-04-08T18:45:48.189Z,97743.14
2023-04-08T18:48:16.670Z,97741.48
2023-04-08T18:50:46.091Z,97745.43
2023-04-08T18:53:14.764Z,97746.27
2023-04-08T18:55:45.048Z,97744.90
2023-04-08T18:58:13.680Z,97748.05
2023-04-08T19:00:42.300Z,97743.77
2023-04-08T19:03:11.237Z,97746.34
2023-04-08T19:05:39.994Z,97749.48
2023-04-08T19:08:08.528Z,97748.02
2023-04-08T19:10:37.011Z,97744.59
2023-04-08T19:13:05.561Z,97748.73
2023-04-08T19:15:34.317Z,97748.50
2023-04-08T19:18:02.934Z,97751.61
2023-04-08T19:20:32.269Z,97753.68
2023-04-08T19:23:01.003Z,97752.48
2023-04-08T19:25:29.621Z,97756.95
2023-04-08T19:27:58.404Z,97752.93
2023-04-08T19:30:26.944Z,97754.94
2023-04-08T19:32:55.457Z,97754.98
2023-04-08T19:35:24.100Z,97754.04
2023-04-08T19:37:52.775Z,97755.02
2023-04-08T19:40:21.195Z,97753.27
2023-04-08T19:42:49.629Z,97754.00
2023-04-08T19:45:18.219Z,97753.02
2023-04-08T19:47:47.113Z,97754.36
2023-04-08T19:50:15.718Z,97752.83
2023-04-08T19:52:44.284Z,97752.67
2023-04-08T19:55:12.767Z,97747.55
2023-04-08T19:57:41.343Z,97747.86
2023-04-08T20:00:12.153Z,97746.13
2023-04-08T20:02:42.231Z,97746.05
2023-04-08T20:05:16.544Z,97746.30
2023-04-08T20:07:45.097Z,97749.47
2023-04-08T20:10:13.656Z,97746.02
2023-04-08T20:12:42.397Z,97748.92
2023-04-08T20:15:23.577Z,97751.84
2023-04-08T20:17:53.772Z,97750.11
2023-04-08T20:20:23.188Z,97752.50
2023-04-08T20:22:52.037Z,97754.48
2023-04-08T20:25:20.642Z,97754.80
2023-04-08T20:27:49.299Z,97755.30
2023-04-08T20:30:18.583Z,97755.04
2023-04-08T20:32:47.271Z,97756.60
2023-04-08T20:35:16.027Z,97754.55
2023-04-08T20:37:44.489Z,97755.98
2023-04-08T20:40:13.233Z,97753.27
2023-04-08T20:42:41.967Z,97754.02
2023-04-08T20:45:11.759Z,97757.59
2023-04-08T20:47:40.845Z,97763.52
2023-04-08T20:50:10.403Z,97765.89
2023-04-08T20:52:39.066Z,97770.05
2023-04-08T20:55:08.221Z,97772.05
2023-04-08T20:57:36.988Z,97775.02
2023-04-08T21:00:06.638Z,97778.09
2023-04-08T21:02:36.524Z,97779.73
2023-04-08T21:05:05.699Z,97780.56
2023-04-08T21:07:34.962Z,97782.83
2023-04-08T21:10:03.985Z,97784.00
2023-04-08T21:12:32.543Z,97787.52
2023-04-08T21:15:01.175Z,97788.79
2023-04-08T21:17:31.449Z,97790.88
2023-04-08T21:20:00.188Z,97794.41
2023-04-08T21:22:29.697Z,97791.70
2023-04-08T21:24:58.193Z,97794.27
2023-04-08T21:27:29.107Z,97792.91
2023-04-08T21:29:57.530Z,97792.70
2023-04-08T21:32:29.514Z,97794.14
2023-04-08T21:34:58.865Z,97791.70
2023-04-08T21:37:27.841Z,97792.45
2023-04-08T21:39:56.345Z,97794.71
2023-04-08T21:42:26.385Z,97799.94
2023-04-08T21:44:55.102Z,97797.73
2023-04-08T21:47:23.676Z,97796.46
2023-04-08T21:49:52.228Z,97800.45
2023-04-08T21:52:20.926Z,97800.63
2023-04-08T21:54:51.264Z,97798.05
2023-04-08T21:57:19.962Z,97799.70
2023-04-08T21:59:48.960Z,97801.08
2023-04-08T22:02:17.922Z,97801.98
2023-04-08T22:04:46.972Z,97802.52
2023-04-08T22:07:16.280Z,97801.84
2023-04-08T22:09:45.091Z,97803.11
2023-04-08T22:12:13.959Z,97804.00
2023-04-08T22:14:42.499Z,97804.59
2023-04-08T22:17:11.724Z,97807.83
2023-04-08T22:19:40.710Z,97809.19
2023-04-08T22:22:09.504Z,97809.77
2023-04-08T22:24:38.358Z,97809.79
2023-04-08T22:27:07.333Z,97810.89
2023-04-08T22:29:36.207Z,97807.60
2023-04-08T22:32:04.939Z,97807.05
2023-04-08T22:34:33.622Z,97803.38
2023-04-08T22:37:02.494Z,97801.78
2023-04-08T22:39:31.786Z,97804.64
2023-04-08T22:42:01.366Z,97804.44
2023-04-08T22:44:30.132Z,97806.64
2023-04-08T22:46:59.241Z,97805.94
2023-04-08T22:49:28.126Z,97806.13
2023-04-08T22:51:57.176Z,97808.73
2023-04-08T22:54:26.037Z,97807.50
2023-04-08T22:56:55.002Z,97806.27
2023-04-08T22:59:24.219Z,97810.04
2023-04-08T23:01:53.352Z,97804.70
2023-04-08T23:04:22.248Z,97803.85
2023-04-08T23:06:51.193Z,97807.95
2023-04-08T23:09:21.299Z,97804.16
2023-04-08T23:11:50.071Z,97804.77
2023-04-08T23:14:18.824Z,97802.76
2023-04-08T23:16:48.368Z,97801.40
2023-04-08T23:19:17.774Z,97801.47
2023-04-08T23:21:47.034Z,97800.02
2023-04-08T23:24:16.335Z,97798.71
2023-04-08T23:26:45.631Z,97800.02
2023-04-08T23:29:15.392Z,97800.02
2023-04-08T23:31:44.695Z,97794.39
2023-04-08T23:34:13.382Z,97795.98
2023-04-08T23:36:42.375Z,97794.84
2023-04-08T23:39:11.380Z,97795.73
2023-04-08T23:41:40.147Z,97794.40
2023-04-08T23:44:10.440Z,97793.39
2023-04-08T23:46:39.279Z,97790.10
2023-04-08T23:49:08.470Z,97793.92
2023-04-08T23:51:39.203Z,97795.00
2023-04-08T23:54:08.075Z,97793.95
2023-04-08T23:56:37.545Z,97793.95
2023-04-08T23:59:06.464Z,97792.17
